Gilbert Plains, Canada
Current Conditions -  °F | °C
As of 8:00 AM on Thursday 27 Nov 2014 (Local Time) from CYDN Reporting Station
Clear Clear  
Wind Chill: -21°   Ceiling: Unl
Heat Index: -9°   Visibility: 9mi
Dew Point: -15°   Wind: 5mph
Humidity: 77%   Direction: 240°WSW
Pressure: 30.31"   Gusts: NA
Location:  51.13°N, 100.48°W
Report Text: CYDN 271400Z AUTO 24004KT 9SM CLR M23/M26 A3031 RMK SLP303
Loading
Personal Weather Stations






























Interactive Weather Map New forecast layout! Learn more

10-Day Weather Forecast

Advertisements
Track Severe Weather on mobile